Time;durP1;ratioP1;P1;durP2;ratioP2;P2;SDS_P1;SDS_P2;PMS_P1;PMS_P2;Temp;Humidity;BMP_temperature;BMP_pressure;BME280_temperature;BME280_humidity;BME280_pressure;Samples;Min_cycle;Max_cycle;Signal;HPM_P1;HPM_P2
2023/09/19 00:00:27;;;;;;;0.10;0.10;;;;;;;;;;5072783;28;20178;-67
2023/09/19 00:02:54;;;;;;;0.10;0.10;;;;;;;;;;5073105;28;20061;-68
2023/09/19 00:05:23;;;;;;;0.20;0.20;;;;;;;;;;5055152;28;20085;-68
2023/09/19 00:07:54;;;;;;;0.20;0.20;;;;;;;;;;5054506;28;20037;-69
2023/09/19 00:10:26;;;;;;;0.35;0.35;;;;;;;;;;5038138;28;20037;-69
2023/09/19 00:12:55;;;;;;;0.20;0.20;;;;;;;;;;5051422;28;20037;-68
2023/09/19 00:15:21;;;;;;;0.20;0.20;;;;;;;;;;5051232;28;20403;-70
2023/09/19 00:17:47;;;;;;;0.10;0.10;;;;;;;;;;5052412;28;20032;-69
2023/09/19 00:20:15;;;;;;;0.15;0.15;;;;;;;;;;5034964;28;20029;-68
2023/09/19 00:22:41;;;;;;;0.20;0.20;;;;;;;;;;5036583;28;20473;-68
2023/09/19 00:25:07;;;;;;;0.20;0.20;;;;;;;;;;5035772;28;20496;-68
2023/09/19 00:27:35;;;;;;;0.10;0.10;;;;;;;;;;5052870;28;20041;-67
2023/09/19 00:30:00;;;;;;;0.20;0.20;;;;;;;;;;5052770;28;20067;-67
2023/09/19 00:32:32;;;;;;;0.20;0.20;;;;;;;;;;5052492;28;20076;-67
2023/09/19 00:34:57;;;;;;;0.20;0.20;;;;;;;;;;5053038;28;20064;-67
2023/09/19 00:37:23;;;;;;;1.40;1.40;;;;;;;;;;5051171;28;20032;-68
2023/09/19 00:39:48;;;;;;;0.10;0.10;;;;;;;;;;5051373;28;20044;-68
2023/09/19 00:42:19;;;;;;;0.10;0.10;;;;;;;;;;5051179;28;20037;-68
2023/09/19 00:44:44;;;;;;;0.10;0.10;;;;;;;;;;5051229;28;20040;-68
2023/09/19 00:47:15;;;;;;;0.20;0.20;;;;;;;;;;5052610;28;20029;-68
2023/09/19 00:49:41;;;;;;;0.20;0.20;;;;;;;;;;5034862;28;20176;-68
2023/09/19 00:52:10;;;;;;;0.20;0.20;;;;;;;;;;5052466;28;20111;-67
2023/09/19 00:54:35;;;;;;;0.15;0.15;;;;;;;;;;5034687;28;20040;-68
2023/09/19 00:57:01;;;;;;;0.20;0.20;;;;;;;;;;5034502;28;20036;-68
2023/09/19 00:59:27;;;;;;;0.17;0.17;;;;;;;;;;5050975;28;20100;-68
2023/09/19 01:01:54;;;;;;;0.20;0.20;;;;;;;;;;5034512;28;20045;-68
2023/09/19 01:04:19;;;;;;;0.20;0.20;;;;;;;;;;5034470;28;20546;-68
2023/09/19 01:06:45;;;;;;;0.10;0.10;;;;;;;;;;5050943;28;20041;-68
2023/09/19 01:09:11;;;;;;;0.10;0.10;;;;;;;;;;5033951;28;20029;-68
2023/09/19 01:11:43;;;;;;;0.20;0.20;;;;;;;;;;5034124;28;20033;-69
2023/09/19 01:14:20;;;;;;;0.20;0.20;;;;;;;;;;5050897;28;20435;-68
2023/09/19 01:16:50;;;;;;;0.82;0.82;;;;;;;;;;5034240;28;20037;-68
2023/09/19 01:19:15;;;;;;;0.20;0.20;;;;;;;;;;5050789;28;20036;-68
2023/09/19 01:21:46;;;;;;;0.55;0.55;;;;;;;;;;5051710;28;20028;-69
2023/09/19 01:24:35;;;;;;;3.13;3.03;;;;;;;;;;5051575;28;20033;-68
2023/09/19 01:27:24;;;;;;;0.20;0.20;;;;;;;;;;5037915;28;20037;-68
2023/09/19 01:29:50;;;;;;;0.20;0.20;;;;;;;;;;5048030;28;20049;-68
2023/09/19 01:32:19;;;;;;;0.20;0.20;;;;;;;;;;5039046;28;20063;-68
2023/09/19 01:34:49;;;;;;;1.15;1.10;;;;;;;;;;5037378;28;20033;-68
2023/09/19 01:37:25;;;;;;;0.82;0.82;;;;;;;;;;5036491;28;20039;-68
2023/09/19 01:40:11;;;;;;;0.20;0.20;;;;;;;;;;5037350;28;20060;-68
2023/09/19 01:42:43;;;;;;;0.20;0.20;;;;;;;;;;5036938;28;20055;-69
2023/09/19 01:45:33;;;;;;;0.20;0.20;;;;;;;;;;5052962;28;20033;-68
2023/09/19 01:48:06;;;;;;;0.20;0.20;;;;;;;;;;5037297;28;20037;-67
2023/09/19 01:50:43;;;;;;;0.20;0.20;;;;;;;;;;5060059;28;20075;-68
2023/09/19 01:53:24;;;;;;;0.17;0.17;;;;;;;;;;5056458;28;20068;-68
2023/09/19 01:55:51;;;;;;;2.83;0.73;;;;;;;;;;5057030;28;20034;-68
2023/09/19 01:58:22;;;;;;;0.13;0.13;;;;;;;;;;5056785;28;20032;-67
2023/09/19 02:00:51;;;;;;;0.10;0.10;;;;;;;;;;5036327;28;20033;-68
2023/09/19 02:03:17;;;;;;;0.20;0.20;;;;;;;;;;5020259;28;20033;-68
2023/09/19 02:05:48;;;;;;;0.20;0.20;;;;;;;;;;5036763;28;20037;-68
2023/09/19 02:08:16;;;;;;;0.17;0.17;;;;;;;;;;5037012;28;20472;-68
2023/09/19 02:10:46;;;;;;;0.20;0.20;;;;;;;;;;5037164;28;20388;-68
2023/09/19 02:13:12;;;;;;;0.20;0.20;;;;;;;;;;5036645;28;20130;-68
2023/09/19 02:15:38;;;;;;;0.10;0.10;;;;;;;;;;5054729;28;20025;-68
2023/09/19 02:18:04;;;;;;;0.20;0.20;;;;;;;;;;5038854;28;20033;-68
2023/09/19 02:20:29;;;;;;;0.20;0.20;;;;;;;;;;5056492;28;20033;-68
2023/09/19 02:22:55;;;;;;;0.22;0.22;;;;;;;;;;5055439;28;20029;-68
2023/09/19 02:25:20;;;;;;;0.40;0.40;;;;;;;;;;5054688;28;20041;-68
2023/09/19 02:27:46;;;;;;;0.20;0.20;;;;;;;;;;5054525;28;20033;-68
2023/09/19 02:30:15;;;;;;;0.22;0.22;;;;;;;;;;5036424;28;20492;-68
2023/09/19 02:32:41;;;;;;;0.13;0.13;;;;;;;;;;5036759;28;20037;-68
2023/09/19 02:35:10;;;;;;;0.17;0.17;;;;;;;;;;5036484;28;20614;-67
2023/09/19 02:37:36;;;;;;;0.20;0.20;;;;;;;;;;5036959;28;20170;-68
2023/09/19 02:40:06;;;;;;;0.20;0.20;;;;;;;;;;5053022;28;20276;-68
2023/09/19 02:42:32;;;;;;;0.20;0.20;;;;;;;;;;5036676;28;20040;-67
2023/09/19 02:44:58;;;;;;;0.20;0.20;;;;;;;;;;5053662;28;20045;-68
2023/09/19 02:47:23;;;;;;;0.40;0.40;;;;;;;;;;5036500;28;20079;-69
2023/09/19 02:49:49;;;;;;;0.32;0.32;;;;;;;;;;5054347;28;20480;-68
2023/09/19 02:52:15;;;;;;;0.17;0.17;;;;;;;;;;5037239;28;20115;-69
2023/09/19 02:54:45;;;;;;;0.20;0.20;;;;;;;;;;5074096;28;20185;-68
2023/09/19 02:57:10;;;;;;;;;;;;;;;;;;5039998;28;20120;-68
2023/09/19 02:59:44;;;;;;;0.10;0.10;;;;;;;;;;5071553;28;20053;-69
2023/09/19 03:02:12;;;;;;;0.20;0.20;;;;;;;;;;5035246;28;20045;-68
2023/09/19 03:04:37;;;;;;;0.20;0.20;;;;;;;;;;5035164;28;20039;-68
2023/09/19 03:07:04;;;;;;;0.20;0.20;;;;;;;;;;5069841;28;20119;-68
2023/09/19 03:09:30;;;;;;;0.20;0.20;;;;;;;;;;5035814;28;20032;-68
2023/09/19 03:11:56;;;;;;;0.10;0.10;;;;;;;;;;5035363;28;20131;-69
2023/09/19 03:14:23;;;;;;;0.10;0.10;;;;;;;;;;5063483;28;20117;-68
2023/09/19 03:16:49;;;;;;;0.20;0.20;;;;;;;;;;5038300;28;20040;-68
2023/09/19 03:19:15;;;;;;;0.20;0.20;;;;;;;;;;5049826;28;20032;-67
2023/09/19 03:21:41;;;;;;;0.10;0.10;;;;;;;;;;5031611;28;20054;-68
2023/09/19 03:24:07;;;;;;;0.13;0.13;;;;;;;;;;5066654;28;20115;-68
2023/09/19 03:26:33;;;;;;;0.20;0.20;;;;;;;;;;5068944;28;20115;-67
2023/09/19 03:28:59;;;;;;;0.20;0.20;;;;;;;;;;5051544;28;20127;-67
2023/09/19 03:31:25;;;;;;;0.20;0.20;;;;;;;;;;5043879;28;20120;-68
2023/09/19 03:33:51;;;;;;;0.17;0.17;;;;;;;;;;5068093;28;20032;-68
2023/09/19 03:36:16;;;;;;;0.10;0.10;;;;;;;;;;5051545;28;20041;-68
2023/09/19 03:38:42;;;;;;;0.20;0.20;;;;;;;;;;5051305;28;20476;-68
2023/09/19 03:41:09;;;;;;;0.17;0.17;;;;;;;;;;5051480;28;20048;-68
2023/09/19 03:43:36;;;;;;;0.10;0.10;;;;;;;;;;5034955;28;20401;-68
2023/09/19 03:46:06;;;;;;;0.52;0.52;;;;;;;;;;5051412;28;20143;-68
2023/09/19 03:48:33;;;;;;;0.20;0.20;;;;;;;;;;5050905;28;20036;-68
2023/09/19 03:50:59;;;;;;;0.20;0.20;;;;;;;;;;5051173;28;20119;-68
2023/09/19 03:53:24;;;;;;;0.20;0.20;;;;;;;;;;5050528;28;20119;-67
2023/09/19 03:55:50;;;;;;;0.17;0.17;;;;;;;;;;5051061;28;20036;-68
2023/09/19 03:58:16;;;;;;;0.17;0.17;;;;;;;;;;5050152;28;20028;-68
2023/09/19 04:00:41;;;;;;;0.10;0.10;;;;;;;;;;5069284;28;20086;-68
2023/09/19 04:03:07;;;;;;;0.10;0.10;;;;;;;;;;5051639;28;20035;-67
2023/09/19 04:05:33;;;;;;;0.20;0.20;;;;;;;;;;5050029;28;20365;-68
2023/09/19 04:07:59;;;;;;;0.15;0.15;;;;;;;;;;5051217;28;20051;-69
2023/09/19 04:10:25;;;;;;;0.20;0.20;;;;;;;;;;5068847;28;20032;-68
2023/09/19 04:12:54;;;;;;;0.20;0.20;;;;;;;;;;5049234;28;20669;-68
2023/09/19 04:15:22;;;;;;;0.20;0.20;;;;;;;;;;5051073;28;20074;-68
2023/09/19 04:17:52;;;;;;;0.17;0.17;;;;;;;;;;5034253;28;20028;-69
2023/09/19 04:20:24;;;;;;;0.20;0.20;;;;;;;;;;5049623;28;20553;-68
2023/09/19 04:22:50;;;;;;;0.20;0.20;;;;;;;;;;5034214;28;20086;-68
2023/09/19 04:25:16;;;;;;;0.20;0.20;;;;;;;;;;5048915;28;20063;-69
2023/09/19 04:27:42;;;;;;;0.32;0.32;;;;;;;;;;5067225;28;20068;-70
2023/09/19 04:30:11;;;;;;;0.20;0.20;;;;;;;;;;5067398;28;20024;-69
2023/09/19 04:32:40;;;;;;;0.15;0.15;;;;;;;;;;5033141;28;20599;-74
2023/09/19 04:35:08;;;;;;;0.20;0.20;;;;;;;;;;5034112;28;20090;-68
2023/09/19 04:37:41;;;;;;;0.20;0.20;;;;;;;;;;5050830;28;20066;-68
2023/09/19 04:40:12;;;;;;;0.93;0.93;;;;;;;;;;5033594;28;20071;-68
2023/09/19 04:42:40;;;;;;;2.55;1.88;;;;;;;;;;5050600;28;20066;-68
2023/09/19 04:45:06;;;;;;;0.20;0.20;;;;;;;;;;5033952;28;20036;-67
2023/09/19 04:47:31;;;;;;;0.10;0.10;;;;;;;;;;5068362;28;20511;-67
2023/09/19 04:49:58;;;;;;;0.20;0.20;;;;;;;;;;5068346;28;20182;-68
2023/09/19 04:52:24;;;;;;;0.10;0.10;;;;;;;;;;5049762;28;20498;-68
2023/09/19 04:54:50;;;;;;;0.20;0.20;;;;;;;;;;5067951;28;20040;-68
2023/09/19 04:57:15;;;;;;;0.20;0.20;;;;;;;;;;5068144;28;20450;-67
2023/09/19 04:59:41;;;;;;;0.10;0.10;;;;;;;;;;5050049;28;20127;-68
2023/09/19 05:02:11;;;;;;;0.10;0.10;;;;;;;;;;5064589;28;20340;-68
2023/09/19 05:04:38;;;;;;;0.20;0.20;;;;;;;;;;5049363;28;20039;-68
2023/09/19 05:07:03;;;;;;;0.10;0.10;;;;;;;;;;5048168;28;20037;-68
2023/09/19 05:09:29;;;;;;;0.10;0.10;;;;;;;;;;5071221;28;20040;-68
2023/09/19 05:11:54;;;;;;;0.20;0.20;;;;;;;;;;5071559;28;20451;-68
2023/09/19 05:14:20;;;;;;;0.20;0.20;;;;;;;;;;5070959;28;20036;-69
2023/09/19 05:16:46;;;;;;;0.20;0.20;;;;;;;;;;5036991;28;20494;-68
2023/09/19 05:19:12;;;;;;;0.20;0.20;;;;;;;;;;5053279;28;20428;-68
2023/09/19 05:21:40;;;;;;;0.10;0.10;;;;;;;;;;5071395;28;20116;-69
2023/09/19 05:24:06;;;;;;;0.20;0.20;;;;;;;;;;5052873;28;20120;-68
2023/09/19 05:26:32;;;;;;;0.20;0.20;;;;;;;;;;5071280;28;20826;-68
2023/09/19 05:28:58;;;;;;;0.15;0.15;;;;;;;;;;5034725;28;20103;-69
2023/09/19 05:31:25;;;;;;;0.20;0.20;;;;;;;;;;5023858;28;20033;-68
2023/09/19 05:33:52;;;;;;;0.13;0.13;;;;;;;;;;5026943;28;20065;-68
2023/09/19 05:36:17;;;;;;;0.10;0.10;;;;;;;;;;5050279;28;20127;-69
2023/09/19 05:38:44;;;;;;;0.20;0.20;;;;;;;;;;5056568;28;20109;-69
2023/09/19 05:41:13;;;;;;;0.20;0.20;;;;;;;;;;5035314;28;20029;-69
2023/09/19 05:43:40;;;;;;;0.20;0.20;;;;;;;;;;5035517;28;20040;-69
2023/09/19 05:46:07;;;;;;;0.20;0.20;;;;;;;;;;5030882;28;20048;-69
2023/09/19 05:48:33;;;;;;;0.30;0.30;;;;;;;;;;5022551;28;20044;-68
2023/09/19 05:51:01;;;;;;;0.35;0.35;;;;;;;;;;5065675;28;20090;-68
2023/09/19 05:53:26;;;;;;;0.10;0.10;;;;;;;;;;5053652;28;20040;-73
2023/09/19 05:55:53;;;;;;;0.20;0.20;;;;;;;;;;5040976;28;20087;-68
2023/09/19 05:58:19;;;;;;;0.25;0.25;;;;;;;;;;5018998;28;20066;-68
2023/09/19 06:00:47;;;;;;;0.20;0.20;;;;;;;;;;5061599;28;20052;-69
2023/09/19 06:03:13;;;;;;;0.10;0.10;;;;;;;;;;5026345;28;20028;-69
2023/09/19 06:05:41;;;;;;;0.20;0.20;;;;;;;;;;5052432;28;20028;-68
2023/09/19 06:08:07;;;;;;;0.20;0.20;;;;;;;;;;5070469;28;20044;-68
2023/09/19 06:10:34;;;;;;;0.20;0.20;;;;;;;;;;5059096;28;20552;-71
2023/09/19 06:13:00;;;;;;;0.20;0.20;;;;;;;;;;5046843;28;20036;-68
2023/09/19 06:15:26;;;;;;;0.20;0.20;;;;;;;;;;5070252;28;20357;-68
2023/09/19 06:17:57;;;;;;;0.20;0.20;;;;;;;;;;5036616;28;20221;-71
2023/09/19 06:20:25;;;;;;;0.20;0.20;;;;;;;;;;5053293;28;20035;-67
2023/09/19 06:22:51;;;;;;;0.20;0.20;;;;;;;;;;5036591;28;20480;-68
2023/09/19 06:25:20;;;;;;;0.20;0.20;;;;;;;;;;5036264;28;20175;-67
2023/09/19 06:27:46;;;;;;;0.20;0.20;;;;;;;;;;5035828;28;20036;-68
2023/09/19 06:30:12;;;;;;;0.10;0.10;;;;;;;;;;5036065;28;20058;-71
2023/09/19 06:32:38;;;;;;;0.20;0.20;;;;;;;;;;5052414;28;20033;-68
2023/09/19 06:35:07;;;;;;;0.20;0.20;;;;;;;;;;5070582;28;20032;-67
2023/09/19 06:37:34;;;;;;;0.20;0.20;;;;;;;;;;5036327;28;20494;-68
2023/09/19 06:40:00;;;;;;;0.20;0.20;;;;;;;;;;5070637;28;20123;-67
2023/09/19 06:42:25;;;;;;;3.58;1.23;;;;;;;;;;5070045;28;20115;-68
2023/09/19 06:44:51;;;;;;;0.93;0.88;;;;;;;;;;5052808;28;20062;-67
2023/09/19 06:47:17;;;;;;;0.20;0.20;;;;;;;;;;5052317;28;20124;-67
2023/09/19 06:49:45;;;;;;;0.20;0.20;;;;;;;;;;5053928;28;20396;-68
2023/09/19 06:52:11;;;;;;;0.47;0.47;;;;;;;;;;5037680;28;20047;-68
2023/09/19 06:54:37;;;;;;;0.28;0.28;;;;;;;;;;5071969;28;20024;-66
2023/09/19 06:57:03;;;;;;;0.10;0.10;;;;;;;;;;5070608;28;20086;-67
2023/09/19 06:59:28;;;;;;;0.20;0.20;;;;;;;;;;5069608;28;20070;-72
2023/09/19 07:01:54;;;;;;;0.20;0.20;;;;;;;;;;5066996;28;20467;-72
2023/09/19 07:04:20;;;;;;;0.20;0.20;;;;;;;;;;5068079;28;20299;-72
2023/09/19 07:06:49;;;;;;;0.20;0.20;;;;;;;;;;5068652;28;20041;-72
2023/09/19 07:09:15;;;;;;;;;;;;;;;;;;5069204;28;20484;-73
2023/09/19 07:11:40;;;;;;;0.20;0.20;;;;;;;;;;5051214;28;19961;-72
2023/09/19 07:14:06;;;;;;;0.20;0.20;;;;;;;;;;5068543;28;20031;-74
2023/09/19 07:16:31;;;;;;;0.20;0.20;;;;;;;;;;5069503;28;20040;-73
2023/09/19 07:18:57;;;;;;;0.20;0.20;;;;;;;;;;5070140;28;20487;-73
2023/09/19 07:21:23;;;;;;;0.20;0.20;;;;;;;;;;5070001;28;20445;-74
2023/09/19 07:23:49;;;;;;;0.20;0.20;;;;;;;;;;5068016;28;20125;-73
2023/09/19 07:26:15;;;;;;;0.20;0.20;;;;;;;;;;5066700;28;20031;-73
2023/09/19 07:28:40;;;;;;;0.63;0.63;;;;;;;;;;5067185;28;20036;-73
2023/09/19 07:31:09;;;;;;;0.20;0.20;;;;;;;;;;5068122;28;20387;-74
2023/09/19 07:33:36;;;;;;;0.20;0.20;;;;;;;;;;5049608;28;20357;-73
2023/09/19 07:36:01;;;;;;;0.20;0.20;;;;;;;;;;5049432;28;20161;-73
2023/09/19 07:38:27;;;;;;;0.20;0.20;;;;;;;;;;5068191;28;20109;-73
2023/09/19 07:40:52;;;;;;;0.20;0.20;;;;;;;;;;5051455;28;20036;-73
2023/09/19 07:43:18;;;;;;;0.20;0.20;;;;;;;;;;5069417;28;20079;-73
2023/09/19 07:45:43;;;;;;;0.20;0.20;;;;;;;;;;5051392;28;20395;-74
2023/09/19 07:48:14;;;;;;;0.28;0.28;;;;;;;;;;5069165;28;20036;-73
2023/09/19 07:50:40;;;;;;;0.20;0.20;;;;;;;;;;5051796;28;20109;-74
2023/09/19 07:53:05;;;;;;;0.75;0.75;;;;;;;;;;5069354;28;20492;-74
2023/09/19 07:55:33;;;;;;;3.70;1.70;;;;;;;;;;5069426;28;20036;-73
2023/09/19 07:57:59;;;;;;;0.20;0.20;;;;;;;;;;5069119;28;20021;-73
2023/09/19 08:00:25;;;;;;;0.45;0.45;;;;;;;;;;5068878;28;20392;-73
2023/09/19 08:02:52;;;;;;;0.73;0.52;;;;;;;;;;5069614;28;20444;-73
2023/09/19 08:05:18;;;;;;;0.30;0.30;;;;;;;;;;5051518;28;20400;-73
2023/09/19 08:07:52;;;;;;;0.30;0.30;;;;;;;;;;5070474;28;20104;-74
2023/09/19 08:10:19;;;;;;;0.20;0.20;;;;;;;;;;5053530;28;20033;-73
2023/09/19 08:12:48;;;;;;;0.30;0.30;;;;;;;;;;5069283;28;20115;-73
2023/09/19 08:15:13;;;;;;;;;;;;;;;;;;5069908;28;20055;-73
2023/09/19 08:17:39;;;;;;;3.13;2.47;;;;;;;;;;5068477;28;20356;-73
2023/09/19 08:20:05;;;;;;;0.30;0.30;;;;;;;;;;5068690;28;20480;-73
2023/09/19 08:22:31;;;;;;;0.43;0.43;;;;;;;;;;5050849;28;20021;-73
2023/09/19 08:24:58;;;;;;;0.20;0.20;;;;;;;;;;5068618;28;20511;-73
2023/09/19 08:27:26;;;;;;;0.30;0.30;;;;;;;;;;5068748;28;20514;-73
2023/09/19 08:29:52;;;;;;;6.65;3.35;;;;;;;;;;5068571;28;20032;-73
2023/09/19 08:32:23;;;;;;;2.83;1.20;;;;;;;;;;5068925;28;20041;-73
2023/09/19 08:34:49;;;;;;;0.30;0.30;;;;;;;;;;5068806;28;20578;-73
2023/09/19 08:37:15;;;;;;;0.60;0.60;;;;;;;;;;5068669;28;20040;-73
2023/09/19 08:39:41;;;;;;;1.45;1.35;;;;;;;;;;5068541;28;20032;-73
2023/09/19 08:42:07;;;;;;;0.20;0.20;;;;;;;;;;5050727;28;20036;-73
2023/09/19 08:44:36;;;;;;;0.30;0.30;;;;;;;;;;5068617;28;20035;-73
2023/09/19 08:47:10;;;;;;;0.73;0.73;;;;;;;;;;5069128;28;20538;-73
2023/09/19 08:49:36;;;;;;;19.48;6.78;;;;;;;;;;5050769;28;20492;-73
2023/09/19 08:52:10;;;;;;;5.35;2.35;;;;;;;;;;5068616;28;20036;-73
2023/09/19 08:54:39;;;;;;;0.40;0.40;;;;;;;;;;5068553;28;20028;-73
2023/09/19 08:57:08;;;;;;;0.50;0.50;;;;;;;;;;5069086;28;20043;-73
2023/09/19 08:59:35;;;;;;;0.30;0.30;;;;;;;;;;5068489;28;20039;-73
2023/09/19 09:02:01;;;;;;;0.20;0.20;;;;;;;;;;5068418;28;20545;-73
2023/09/19 09:04:27;;;;;;;0.30;0.30;;;;;;;;;;5068203;28;20044;-73
2023/09/19 09:06:54;;;;;;;0.30;0.30;;;;;;;;;;5068668;28;20185;-73
2023/09/19 09:09:20;;;;;;;0.40;0.40;;;;;;;;;;5068378;28;20072;-73
2023/09/19 09:11:48;;;;;;;0.30;0.30;;;;;;;;;;5068307;28;20064;-73
2023/09/19 09:14:13;;;;;;;3.47;3.13;;;;;;;;;;5068176;28;20098;-73
2023/09/19 09:16:39;;;;;;;0.40;0.40;;;;;;;;;;5050160;28;20045;-73
2023/09/19 09:19:05;;;;;;;0.30;0.30;;;;;;;;;;5068061;28;20020;-72
2023/09/19 09:21:35;;;;;;;2.72;0.93;;;;;;;;;;5068144;28;20044;-72
2023/09/19 09:24:20;;;;;;;0.30;0.30;;;;;;;;;;5067960;28;20086;-72
2023/09/19 09:26:47;;;;;;;0.40;0.40;;;;;;;;;;5068049;28;20075;-72
2023/09/19 09:29:13;;;;;;;1.63;1.40;;;;;;;;;;5068231;28;20028;-72
2023/09/19 09:31:41;;;;;;;0.30;0.30;;;;;;;;;;5067888;28;20115;-73
2023/09/19 09:34:07;;;;;;;0.50;0.50;;;;;;;;;;5068275;28;20043;-73
2023/09/19 09:36:36;;;;;;;0.98;0.95;;;;;;;;;;5068095;28;20033;-73
2023/09/19 09:39:15;;;;;;;0.30;0.30;;;;;;;;;;5067693;28;20028;-73
2023/09/19 09:41:41;;;;;;;0.65;0.65;;;;;;;;;;5067985;28;20037;-73
2023/09/19 09:44:17;;;;;;;0.38;0.38;;;;;;;;;;5067614;28;20491;-73
2023/09/19 09:52:06;;;;;;;0.40;0.40;;;;;;;;;;5071308;28;20047;-73
2023/09/19 09:54:36;;;;;;;4.13;1.75;;;;;;;;;;5071072;28;20036;-73
2023/09/19 09:57:23;;;;;;;1.15;1.15;;;;;;;;;;5071361;28;20044;-73
2023/09/19 09:59:53;;;;;;;0.50;0.50;;;;;;;;;;5071118;28;20413;-73
2023/09/19 10:02:29;;;;;;;0.30;0.30;;;;;;;;;;5036353;28;20131;-73
2023/09/19 10:04:59;;;;;;;0.45;0.40;;;;;;;;;;5071635;28;20037;-73
2023/09/19 10:07:26;;;;;;;0.85;0.60;;;;;;;;;;5071782;28;20048;-73
2023/09/19 10:09:52;;;;;;;1.05;0.85;;;;;;;;;;5071032;28;20577;-73
2023/09/19 10:12:19;;;;;;;0.32;0.32;;;;;;;;;;5053458;28;20541;-73
2023/09/19 10:14:47;;;;;;;0.40;0.40;;;;;;;;;;5071011;28;20038;-75
2023/09/19 10:17:15;;;;;;;2.00;1.80;;;;;;;;;;5053334;28;20123;-73
2023/09/19 10:20:18;;;;;;;0.30;0.30;;;;;;;;;;5070988;28;20029;-73
2023/09/19 10:22:56;;;;;;;0.80;0.80;;;;;;;;;;5068426;28;20388;-72
2023/09/19 10:25:23;;;;;;;0.40;0.40;;;;;;;;;;5068982;28;20024;-73
2023/09/19 10:27:50;;;;;;;1.10;0.47;;;;;;;;;;5069499;28;20123;-72
2023/09/19 10:30:17;;;;;;;0.30;0.30;;;;;;;;;;5062900;28;20074;-73
2023/09/19 10:32:43;;;;;;;1.00;0.82;;;;;;;;;;5050594;28;20067;-72
2023/09/19 10:35:11;;;;;;;0.85;0.65;;;;;;;;;;5050872;28;20072;-72
2023/09/19 10:37:37;;;;;;;3.33;0.50;;;;;;;;;;5052933;28;20078;-72
2023/09/19 10:40:08;;;;;;;1.17;0.95;;;;;;;;;;5042452;28;20472;-73
2023/09/19 10:42:37;;;;;;;0.38;0.38;;;;;;;;;;5067121;28;20032;-73
2023/09/19 10:45:07;;;;;;;0.40;0.40;;;;;;;;;;5045404;28;20033;-72
2023/09/19 10:47:32;;;;;;;1.48;0.95;;;;;;;;;;5055325;28;20020;-72
2023/09/19 10:49:58;;;;;;;1.20;1.10;;;;;;;;;;5067161;28;20082;-72
2023/09/19 10:52:25;;;;;;;0.30;0.30;;;;;;;;;;5061264;28;20037;-72
2023/09/19 10:54:57;;;;;;;0.40;0.40;;;;;;;;;;5062467;28;20035;-71
2023/09/19 10:57:23;;;;;;;1.85;1.30;;;;;;;;;;5061769;28;20035;-72
2023/09/19 11:00:23;;;;;;;0.30;0.30;;;;;;;;;;5059071;28;20036;-72
2023/09/19 11:03:07;;;;;;;2.08;0.77;;;;;;;;;;5069214;28;20025;-72
2023/09/19 11:05:33;;;;;;;0.65;0.65;;;;;;;;;;5069957;28;20044;-72
2023/09/19 11:08:04;;;;;;;0.40;0.40;;;;;;;;;;5050047;28;20128;-72
2023/09/19 11:10:49;;;;;;;0.60;0.60;;;;;;;;;;5059491;28;20032;-72
2023/09/19 11:13:30;;;;;;;0.70;0.70;;;;;;;;;;5069373;28;20058;-74
2023/09/19 11:15:59;;;;;;;0.60;0.60;;;;;;;;;;5051819;28;20060;-74
2023/09/19 11:18:25;;;;;;;;;;;;;;;;;;5069962;28;20071;-74
2023/09/19 11:21:11;;;;;;;3.53;0.93;;;;;;;;;;5069723;28;19948;-73
2023/09/19 11:23:37;;;;;;;0.50;0.50;;;;;;;;;;5069768;28;20059;-73
2023/09/19 11:26:04;;;;;;;1.40;1.00;;;;;;;;;;5069586;28;20075;-73
2023/09/19 11:28:31;;;;;;;0.30;0.30;;;;;;;;;;5069096;28;20391;-73
2023/09/19 11:30:58;;;;;;;0.45;0.45;;;;;;;;;;5063239;28;20033;-73
2023/09/19 11:36:02;;;;;;;2.58;0.82;;;;;;;;;;5058195;28;20044;-73
2023/09/19 11:38:47;;;;;;;2.67;1.33;;;;;;;;;;5067497;28;20447;-73
2023/09/19 11:41:31;;;;;;;0.40;0.40;;;;;;;;;;5068458;28;20044;-73
2023/09/19 11:44:06;;;;;;;0.50;0.50;;;;;;;;;;5069306;28;20040;-73
2023/09/19 11:46:58;;;;;;;0.30;0.30;;;;;;;;;;5064547;28;20195;-73
2023/09/19 11:49:29;;;;;;;0.30;0.30;;;;;;;;;;5056462;28;20608;-73
2023/09/19 11:51:56;;;;;;;0.30;0.30;;;;;;;;;;5069219;28;20036;-73
2023/09/19 11:54:21;;;;;;;0.60;0.60;;;;;;;;;;5069018;28;20134;-74
2023/09/19 11:56:54;;;;;;;0.30;0.30;;;;;;;;;;5069387;28;20068;-73
2023/09/19 11:59:29;;;;;;;0.43;0.43;;;;;;;;;;5067211;28;20501;-73
2023/09/19 12:01:57;;;;;;;0.75;0.75;;;;;;;;;;5059867;28;20099;-73
2023/09/19 12:04:41;;;;;;;0.40;0.40;;;;;;;;;;5050173;28;20163;-73
2023/09/19 12:07:10;;;;;;;0.50;0.50;;;;;;;;;;5050300;28;20098;-74
2023/09/19 12:09:40;;;;;;;0.47;0.47;;;;;;;;;;5048447;28;20549;-73
2023/09/19 12:12:06;;;;;;;0.50;0.50;;;;;;;;;;5058706;28;20090;-74
2023/09/19 12:14:31;;;;;;;1.08;0.85;;;;;;;;;;5061845;28;20032;-74
2023/09/19 12:17:00;;;;;;;0.52;0.50;;;;;;;;;;5050943;28;20048;-72
2023/09/19 12:19:25;;;;;;;0.63;0.63;;;;;;;;;;5057882;28;20017;-73
2023/09/19 12:21:56;;;;;;;1.75;1.05;;;;;;;;;;5065431;28;20029;-74
2023/09/19 12:24:22;;;;;;;5.78;1.17;;;;;;;;;;5059434;28;20033;-72
2023/09/19 12:26:47;;;;;;;0.60;0.60;;;;;;;;;;5067371;28;20515;-73
2023/09/19 12:29:20;;;;;;;2.63;0.85;;;;;;;;;;5069290;28;20033;-73
2023/09/19 12:31:57;;;;;;;0.40;0.40;;;;;;;;;;5060314;28;20029;-73
2023/09/19 12:34:28;;;;;;;0.50;0.50;;;;;;;;;;5048637;28;20044;-73
2023/09/19 12:37:11;;;;;;;1.67;0.80;;;;;;;;;;5048943;28;20392;-73
2023/09/19 12:39:37;;;;;;;5.15;1.02;;;;;;;;;;5062157;28;20044;-73
2023/09/19 12:42:04;;;;;;;0.32;0.32;;;;;;;;;;5068999;28;20028;-73
2023/09/19 12:44:29;;;;;;;0.50;0.50;;;;;;;;;;5049626;28;20122;-73
2023/09/19 12:46:59;;;;;;;0.32;0.32;;;;;;;;;;5068109;28;20343;-73
2023/09/19 12:49:24;;;;;;;0.55;0.55;;;;;;;;;;5067368;28;20031;-73
2023/09/19 12:51:54;;;;;;;1.17;0.73;;;;;;;;;;5067553;28;20032;-73
2023/09/19 12:54:22;;;;;;;0.80;0.70;;;;;;;;;;5050421;28;20082;-73
2023/09/19 12:56:48;;;;;;;3.58;1.48;;;;;;;;;;5068143;28;20041;-73
2023/09/19 12:59:14;;;;;;;0.43;0.43;;;;;;;;;;5068416;28;20036;-74
2023/09/19 13:01:46;;;;;;;0.35;0.35;;;;;;;;;;5068236;28;20016;-74
2023/09/19 13:04:14;;;;;;;1.85;0.50;;;;;;;;;;5067649;28;20130;-73
2023/09/19 13:06:43;;;;;;;0.40;0.40;;;;;;;;;;5068220;28;20112;-73
2023/09/19 13:09:11;;;;;;;1.33;0.95;;;;;;;;;;5068283;28;20051;-73
2023/09/19 13:11:42;;;;;;;0.50;0.50;;;;;;;;;;5068177;28;20037;-73
2023/09/19 13:14:16;;;;;;;0.30;0.30;;;;;;;;;;5068171;28;20035;-73
2023/09/19 13:17:06;;;;;;;1.33;1.23;;;;;;;;;;5068046;28;20063;-73
2023/09/19 13:19:48;;;;;;;0.50;0.50;;;;;;;;;;5068317;28;20071;-73
2023/09/19 13:22:48;;;;;;;0.60;0.60;;;;;;;;;;5049951;28;20169;-73
2023/09/19 13:25:20;;;;;;;1.52;0.90;;;;;;;;;;5046688;28;20091;-73
2023/09/19 13:27:52;;;;;;;1.90;0.93;;;;;;;;;;5071577;28;20032;-73
2023/09/19 13:30:18;;;;;;;2.83;2.00;;;;;;;;;;5071757;28;20029;-72
2023/09/19 13:32:43;;;;;;;0.50;0.50;;;;;;;;;;5071471;28;20037;-72
2023/09/19 13:35:09;;;;;;;0.47;0.45;;;;;;;;;;5071222;28;20033;-74
2023/09/19 13:37:41;;;;;;;0.80;0.70;;;;;;;;;;5071271;28;20040;-72
2023/09/19 13:40:10;;;;;;;0.30;0.30;;;;;;;;;;5071399;28;20716;-74
2023/09/19 13:42:36;;;;;;;0.75;0.65;;;;;;;;;;5070892;28;20036;-73
2023/09/19 13:45:04;;;;;;;0.40;0.40;;;;;;;;;;5071033;28;20032;-73
2023/09/19 13:47:30;;;;;;;1.88;1.75;;;;;;;;;;5071213;28;20155;-73
2023/09/19 13:49:55;;;;;;;0.60;0.60;;;;;;;;;;5053330;28;20131;-73
2023/09/19 13:52:23;;;;;;;1.42;1.25;;;;;;;;;;5071499;28;20578;-73
2023/09/19 13:54:52;;;;;;;1.20;0.80;;;;;;;;;;5071038;28;20090;-73
2023/09/19 13:57:19;;;;;;;1.75;1.30;;;;;;;;;;5072295;28;20132;-73
2023/09/19 13:59:44;;;;;;;1.90;0.88;;;;;;;;;;5073269;28;20460;-73
2023/09/19 14:02:10;;;;;;;2.00;0.43;;;;;;;;;;5054662;28;20037;-73
2023/09/19 14:04:36;;;;;;;1.55;1.23;;;;;;;;;;5070912;28;20115;-73
2023/09/19 14:07:02;;;;;;;0.35;0.35;;;;;;;;;;5070886;28;20127;-73
2023/09/19 14:09:27;;;;;;;0.55;0.55;;;;;;;;;;5071233;28;20050;-74
2023/09/19 14:11:53;;;;;;;1.40;0.80;;;;;;;;;;5071101;28;20036;-72
2023/09/19 14:14:19;;;;;;;0.30;0.30;;;;;;;;;;5070942;28;20071;-73
2023/09/19 14:16:46;;;;;;;1.75;0.70;;;;;;;;;;5070775;28;20514;-74
2023/09/19 14:19:11;;;;;;;12.63;1.45;;;;;;;;;;5070713;28;20021;-73
2023/09/19 14:21:39;;;;;;;0.60;0.60;;;;;;;;;;5070366;28;20047;-72
2023/09/19 14:24:09;;;;;;;1.42;0.50;;;;;;;;;;5070658;28;20025;-72
2023/09/19 14:26:37;;;;;;;0.73;0.73;;;;;;;;;;5070742;28;20029;-72
2023/09/19 14:29:03;;;;;;;0.32;0.32;;;;;;;;;;5051995;28;20076;-72
2023/09/19 14:31:29;;;;;;;0.30;0.30;;;;;;;;;;5071026;28;20455;-72
2023/09/19 14:33:56;;;;;;;0.30;0.30;;;;;;;;;;5070458;28;20032;-72
2023/09/19 14:36:22;;;;;;;0.95;0.75;;;;;;;;;;5068195;28;20037;-72
2023/09/19 14:38:47;;;;;;;0.50;0.50;;;;;;;;;;5069308;28;20035;-72
2023/09/19 14:41:13;;;;;;;1.20;0.82;;;;;;;;;;5069104;28;20037;-72
2023/09/19 14:43:39;;;;;;;0.20;0.20;;;;;;;;;;5069844;28;20143;-72
2023/09/19 14:46:07;;;;;;;0.20;0.20;;;;;;;;;;5069076;28;20115;-72
2023/09/19 14:48:34;;;;;;;9.40;1.17;;;;;;;;;;5069778;28;20029;-72
2023/09/19 14:51:03;;;;;;;0.88;0.68;;;;;;;;;;5070460;28;20036;-72
2023/09/19 14:53:29;;;;;;;0.30;0.30;;;;;;;;;;5070403;28;20472;-73
2023/09/19 14:55:55;;;;;;;4.45;0.98;;;;;;;;;;5070401;28;20043;-72
2023/09/19 14:58:21;;;;;;;0.43;0.43;;;;;;;;;;5069615;28;20153;-72